INDIA METEOROLOGICAL DEPARTMENT, R.M.C. NEW DELHI
Dated:20 - 10 - 2017
METARS OF ALTERNATE AIRPORTS
Delhi      
VIDP 201400Z 03003KT 2500 HZ NSC 29/17 Q1008 NOSIG=
Amritsar   
VIAR 201400Z VRB02KT 4000 HZ NSC 26/19 Q1009 NOSIG=
Lucknow    
VILK 201330Z VRB02KT 2500 HZ FEW100 33/22 Q1006 NOSIG=
Jaipur     
VIJP 201400Z 00000KT 3000 HZ NSC 30/09 Q1009 NOSIG=
Ahmedabad  
VAAH 201400Z 00000KT 4000 FU NSC 30/17 Q1007 NOSIG=
Udaipur    
VAUD 201400Z 31002KT 5000 NSC 27/15 Q1010 NOSIG=
Mumbai     
VABB 201400Z 22004KT 2200 BR FEW100 30/25 Q1008 NOSIG=